createdAt,value
2023-05-20T00:01:42.014Z,20.00
2023-05-20T00:04:10.106Z,19.45
2023-05-20T00:06:39.626Z,19.41
2023-05-20T00:09:07.957Z,19.72
2023-05-20T00:11:35.957Z,19.94
2023-05-20T00:14:04.198Z,19.52
2023-05-20T00:16:32.460Z,19.46
2023-05-20T00:19:00.626Z,19.17
2023-05-20T00:21:29.623Z,19.38
2023-05-20T00:23:59.368Z,19.65
2023-05-20T00:26:27.695Z,19.05
2023-05-20T00:28:58.954Z,19.31
2023-05-20T00:31:27.291Z,19.22
2023-05-20T00:33:55.924Z,19.31
2023-05-20T00:36:23.988Z,19.10
2023-05-20T00:38:52.035Z,19.06
2023-05-20T00:41:21.833Z,18.99
2023-05-20T00:43:50.229Z,19.67
2023-05-20T00:46:18.416Z,18.75
2023-05-20T00:48:46.711Z,19.52
2023-05-20T00:51:15.825Z,19.03
2023-05-20T00:53:45.150Z,19.08
2023-05-20T00:56:13.938Z,19.14
2023-05-20T00:58:44.242Z,19.58
2023-05-20T01:01:12.747Z,18.82
2023-05-20T01:03:42.290Z,18.89
2023-05-20T01:06:10.732Z,19.11
2023-05-20T01:08:39.279Z,18.96
2023-05-20T01:11:10.858Z,19.05
2023-05-20T01:13:45.697Z,18.78
2023-05-20T01:16:18.379Z,18.98
2023-05-20T01:18:50.026Z,18.89
2023-05-20T01:21:19.831Z,19.09
2023-05-20T01:23:51.596Z,18.54
2023-05-20T01:26:21.963Z,18.95
2023-05-20T01:28:51.307Z,19.39
2023-05-20T01:31:25.714Z,18.79
2023-05-20T01:33:58.567Z,18.97
2023-05-20T01:36:28.354Z,18.38
2023-05-20T01:38:59.537Z,18.58
2023-05-20T01:41:30.509Z,18.85
2023-05-20T01:43:59.150Z,18.53
2023-05-20T01:46:28.210Z,18.25
2023-05-20T01:48:56.772Z,18.60
2023-05-20T01:51:25.354Z,18.48
2023-05-20T01:53:53.758Z,18.83
2023-05-20T01:56:23.780Z,18.55
2023-05-20T01:58:51.937Z,18.77
2023-05-20T02:01:21.141Z,18.75
2023-05-20T02:03:49.196Z,18.44
2023-05-20T02:06:17.837Z,18.35
2023-05-20T02:08:46.263Z,18.50
2023-05-20T02:11:14.750Z,18.35
2023-05-20T02:13:44.557Z,18.23
2023-05-20T02:16:12.763Z,18.44
2023-05-20T02:18:40.982Z,18.62
2023-05-20T02:21:08.987Z,18.48
2023-05-20T02:23:37.088Z,18.73
2023-05-20T02:26:06.999Z,18.70
2023-05-20T02:28:40.439Z,18.55
2023-05-20T02:31:10.013Z,18.15
2023-05-20T02:33:38.050Z,18.54
2023-05-20T02:36:06.421Z,18.59
2023-05-20T02:38:36.261Z,18.54
2023-05-20T02:41:04.752Z,18.86
2023-05-20T02:43:32.944Z,19.09
2023-05-20T02:46:02.529Z,19.18
2023-05-20T02:48:32.380Z,18.99
2023-05-20T02:51:00.599Z,18.85
2023-05-20T02:53:28.864Z,18.99
2023-05-20T02:55:59.771Z,18.92
2023-05-20T02:58:29.543Z,18.72
2023-05-20T03:00:58.705Z,18.80
2023-05-20T03:03:27.978Z,18.85
2023-05-20T03:05:57.639Z,18.67
2023-05-20T03:08:25.824Z,18.98
2023-05-20T03:10:53.768Z,19.34
2023-05-20T03:13:22.711Z,18.82
2023-05-20T03:15:50.791Z,18.42
2023-05-20T03:18:19.190Z,18.44
2023-05-20T03:20:47.828Z,18.39
2023-05-20T03:23:17.368Z,18.27
2023-05-20T03:25:46.620Z,18.43
2023-05-20T03:28:14.689Z,18.33
2023-05-20T03:30:42.985Z,18.81
2023-05-20T03:33:12.579Z,18.46
2023-05-20T03:35:41.054Z,18.54
2023-05-20T03:38:09.482Z,18.89
2023-05-20T03:40:41.419Z,18.79
2023-05-20T03:43:09.421Z,18.61
2023-05-20T03:45:37.881Z,18.71
2023-05-20T03:48:08.688Z,18.77
2023-05-20T03:50:37.316Z,18.79
2023-05-20T03:53:05.572Z,18.61
2023-05-20T03:55:41.176Z,18.17
2023-05-20T03:58:10.280Z,18.15
2023-05-20T04:00:38.559Z,17.77
2023-05-20T04:03:06.945Z,17.70
2023-05-20T04:05:37.457Z,17.90
2023-05-20T04:08:13.660Z,17.74
2023-05-20T04:10:58.477Z,17.95
2023-05-20T04:13:26.802Z,18.33
2023-05-20T04:15:54.668Z,18.23
2023-05-20T04:18:22.794Z,18.70
2023-05-20T04:20:51.256Z,18.62
2023-05-20T04:23:19.362Z,18.24
2023-05-20T04:25:48.791Z,18.38
2023-05-20T04:28:18.434Z,19.01
2023-05-20T04:30:46.448Z,18.83
2023-05-20T04:33:14.944Z,19.22
2023-05-20T04:35:44.600Z,18.87
2023-05-20T04:38:12.699Z,19.00
2023-05-20T04:40:41.091Z,19.04
2023-05-20T04:43:09.291Z,18.75
2023-05-20T04:45:38.805Z,19.09
2023-05-20T04:48:07.344Z,19.28
2023-05-20T04:50:39.267Z,19.11
2023-05-20T04:53:08.736Z,19.30
2023-05-20T04:55:37.513Z,19.34
2023-05-20T04:58:05.856Z,18.85
2023-05-20T05:00:34.575Z,19.04
2023-05-20T05:03:05.199Z,19.07
2023-05-20T05:05:33.966Z,19.28
2023-05-20T05:08:02.480Z,19.21
2023-05-20T05:10:31.276Z,19.43
2023-05-20T05:13:00.838Z,19.69
2023-05-20T05:15:29.910Z,19.73
2023-05-20T05:18:03.555Z,19.25
2023-05-20T05:20:34.435Z,19.33
2023-05-20T05:23:02.712Z,19.32
2023-05-20T05:25:31.068Z,18.71
2023-05-20T05:28:01.032Z,19.22
2023-05-20T05:30:29.405Z,19.20
2023-05-20T05:32:57.461Z,19.26
2023-05-20T05:35:25.615Z,18.85
2023-05-20T05:37:55.558Z,19.41
2023-05-20T05:40:23.915Z,19.58
2023-05-20T05:42:52.303Z,18.96
2023-05-20T05:45:20.532Z,19.06
2023-05-20T05:47:48.834Z,19.31
2023-05-20T05:50:17.461Z,19.68
2023-05-20T05:52:45.742Z,19.52
2023-05-20T05:55:15.706Z,19.72
2023-05-20T05:57:43.793Z,19.72
2023-05-20T06:00:16.006Z,20.25
2023-05-20T06:02:47.230Z,19.67
2023-05-20T06:05:29.818Z,19.19
2023-05-20T06:08:00.545Z,19.93
2023-05-20T06:10:31.001Z,20.12
2023-05-20T06:12:59.396Z,20.16
2023-05-20T06:15:28.379Z,20.31
2023-05-20T06:17:57.922Z,20.77
2023-05-20T06:20:27.432Z,20.37
2023-05-20T06:22:55.920Z,20.69
2023-05-20T06:25:26.982Z,20.90
2023-05-20T06:27:56.892Z,20.77
2023-05-20T06:30:25.966Z,20.52
2023-05-20T06:32:55.216Z,19.94
2023-05-20T06:35:23.592Z,20.49
2023-05-20T06:37:51.780Z,20.14
2023-05-20T06:40:19.907Z,20.69
2023-05-20T06:42:48.065Z,21.46
2023-05-20T06:45:17.759Z,21.06
2023-05-20T06:47:56.820Z,20.98
2023-05-20T06:50:25.077Z,20.56
2023-05-20T06:52:53.240Z,20.27
2023-05-20T06:55:21.622Z,19.75
2023-05-20T06:57:49.942Z,20.43
2023-05-20T07:00:21.575Z,19.68
2023-05-20T07:02:49.813Z,20.31
2023-05-20T07:05:18.231Z,20.13
2023-05-20T07:07:46.630Z,20.19
2023-05-20T07:10:14.755Z,20.61
2023-05-20T07:12:43.939Z,21.94
2023-05-20T07:15:12.639Z,21.70
2023-05-20T07:17:42.110Z,22.39
2023-05-20T07:20:10.775Z,22.55
2023-05-20T07:22:39.011Z,21.29
2023-05-20T07:25:14.289Z,21.97
2023-05-20T07:27:42.422Z,21.69
2023-05-20T07:30:11.177Z,21.51
2023-05-20T07:32:42.625Z,22.01
2023-05-20T07:35:10.857Z,21.74
2023-05-20T07:37:38.999Z,21.73
2023-05-20T07:40:09.145Z,21.91
2023-05-20T07:42:39.357Z,22.52
2023-05-20T07:45:08.540Z,21.71
2023-05-20T07:47:36.656Z,20.61
2023-05-20T07:50:06.737Z,21.39
2023-05-20T07:52:51.899Z,21.02
2023-05-20T07:55:26.422Z,20.19
2023-05-20T07:57:54.561Z,21.94
2023-05-20T08:00:23.977Z,21.97
2023-05-20T08:02:52.377Z,21.81
2023-05-20T08:05:28.520Z,21.74
2023-05-20T08:07:56.763Z,22.61
2023-05-20T08:10:28.098Z,22.45
2023-05-20T08:12:56.660Z,20.59
2023-05-20T08:15:25.319Z,21.45
2023-05-20T08:17:53.422Z,23.24
2023-05-20T08:20:23.174Z,23.08
2023-05-20T08:22:53.122Z,22.42
2023-05-20T08:25:22.132Z,22.81
2023-05-20T08:27:50.563Z,22.90
2023-05-20T08:30:19.066Z,22.82
2023-05-20T08:32:50.225Z,23.55
2023-05-20T08:35:24.012Z,23.91
2023-05-20T08:37:55.220Z,24.54
2023-05-20T08:40:39.072Z,24.73
2023-05-20T08:43:09.663Z,24.40
2023-05-20T08:45:40.442Z,23.08
2023-05-20T08:48:13.820Z,24.48
2023-05-20T08:50:42.266Z,23.44
2023-05-20T08:53:12.737Z,23.62
2023-05-20T08:55:47.889Z,23.48
2023-05-20T08:58:19.541Z,23.90
2023-05-20T09:00:49.020Z,23.55
2023-05-20T09:03:18.557Z,23.14
2023-05-20T09:05:47.159Z,24.08
2023-05-20T09:08:17.985Z,23.92
2023-05-20T09:10:47.156Z,23.13
2023-05-20T09:13:17.299Z,22.82
2023-05-20T09:15:46.966Z,23.75
2023-05-20T09:18:18.163Z,24.32
2023-05-20T09:20:49.384Z,24.87
2023-05-20T09:23:21.041Z,25.20
2023-05-20T09:25:52.194Z,24.88
2023-05-20T09:28:24.217Z,24.04
2023-05-20T09:30:52.414Z,23.10
2023-05-20T09:33:22.144Z,23.09
2023-05-20T09:35:51.700Z,22.47
2023-05-20T09:38:22.565Z,21.88
2023-05-20T09:40:50.837Z,22.53
2023-05-20T09:43:19.965Z,22.65
2023-05-20T09:45:48.698Z,23.20
2023-05-20T09:48:17.710Z,23.15
2023-05-20T09:50:46.711Z,22.75
2023-05-20T09:53:16.955Z,23.09
2023-05-20T09:55:48.904Z,23.05
2023-05-20T09:58:20.682Z,23.63
2023-05-20T10:00:49.143Z,24.15
2023-05-20T10:03:18.799Z,23.62
2023-05-20T10:05:54.599Z,22.65
2023-05-20T10:08:54.126Z,22.76
2023-05-20T10:11:41.886Z,22.08
2023-05-20T10:14:30.037Z,23.82
2023-05-20T10:17:12.141Z,23.85
2023-05-20T10:19:41.115Z,22.82
2023-05-20T10:22:13.181Z,23.13
2023-05-20T10:24:42.842Z,23.15
2023-05-20T10:27:14.788Z,22.85
2023-05-20T10:29:44.608Z,23.68
2023-05-20T10:32:12.706Z,23.17
2023-05-20T10:34:48.167Z,24.21
2023-05-20T10:37:26.440Z,23.16
2023-05-20T10:40:04.049Z,23.13
2023-05-20T10:42:33.414Z,23.95
2023-05-20T10:45:01.767Z,24.33
2023-05-20T10:47:30.024Z,24.48
2023-05-20T10:49:59.026Z,23.62
2023-05-20T10:52:29.390Z,24.07
2023-05-20T10:54:59.445Z,24.73
2023-05-20T10:57:29.950Z,25.02
2023-05-20T11:00:02.225Z,23.85
2023-05-20T11:02:31.505Z,24.37
2023-05-20T11:05:01.495Z,24.27
2023-05-20T11:07:30.521Z,23.49
2023-05-20T11:09:59.714Z,24.85
2023-05-20T11:12:30.081Z,24.72
2023-05-20T11:14:59.761Z,24.83
2023-05-20T11:17:27.893Z,24.13
2023-05-20T11:19:56.416Z,23.38
2023-05-20T11:22:26.080Z,23.27
2023-05-20T11:24:55.753Z,23.19
2023-05-20T11:27:24.101Z,24.13
2023-05-20T11:29:53.332Z,24.47
2023-05-20T11:32:26.950Z,23.12
2023-05-20T11:34:55.498Z,23.19
2023-05-20T11:37:26.654Z,23.04
2023-05-20T11:40:07.770Z,24.62
2023-05-20T11:42:36.492Z,25.84
2023-05-20T11:45:05.128Z,24.61
2023-05-20T11:47:34.943Z,25.40
2023-05-20T11:50:04.932Z,25.30
2023-05-20T11:52:35.284Z,25.09
2023-05-20T11:55:04.422Z,23.83
2023-05-20T11:57:33.957Z,24.68
2023-05-20T12:00:07.226Z,23.24
2023-05-20T12:02:36.853Z,23.93
2023-05-20T12:05:05.616Z,23.28
2023-05-20T12:07:36.701Z,23.39
2023-05-20T12:10:05.354Z,25.13
2023-05-20T12:12:33.871Z,25.66
2023-05-20T12:15:02.452Z,25.89
2023-05-20T12:17:30.742Z,25.50
2023-05-20T12:20:00.832Z,25.25
2023-05-20T12:22:29.362Z,25.30
2023-05-20T12:24:57.704Z,24.73
2023-05-20T12:27:26.274Z,24.90
2023-05-20T12:29:54.234Z,24.33
2023-05-20T12:32:24.387Z,24.27
2023-05-20T12:34:54.274Z,24.28
2023-05-20T12:37:24.207Z,23.90
2023-05-20T12:39:52.775Z,24.25
2023-05-20T12:42:21.012Z,23.79
2023-05-20T12:44:49.025Z,24.53
2023-05-20T12:47:17.251Z,25.33
2023-05-20T12:49:45.424Z,25.54
2023-05-20T12:52:21.952Z,24.58
2023-05-20T12:54:52.664Z,24.23
2023-05-20T12:57:20.708Z,24.59
2023-05-20T12:59:48.833Z,25.85
2023-05-20T13:02:16.907Z,25.44
2023-05-20T13:04:45.732Z,24.65
2023-05-20T13:07:13.964Z,24.28
2023-05-20T13:09:41.959Z,25.26
2023-05-20T13:12:11.957Z,26.19
2023-05-20T13:14:39.922Z,26.10
2023-05-20T13:17:08.014Z,27.58
2023-05-20T13:19:36.453Z,25.90
2023-05-20T13:22:05.988Z,25.10
2023-05-20T13:24:35.541Z,26.65
2023-05-20T13:27:03.571Z,26.20
2023-05-20T13:29:33.011Z,27.29
2023-05-20T13:32:02.073Z,27.35
2023-05-20T13:34:31.658Z,26.00
2023-05-20T13:36:59.756Z,27.22
2023-05-20T13:39:27.937Z,26.92
2023-05-20T13:41:56.422Z,26.23
2023-05-20T13:44:24.601Z,26.69
2023-05-20T13:46:54.260Z,25.39
2023-05-20T13:49:23.067Z,25.96
2023-05-20T13:51:51.119Z,27.59
2023-05-20T13:54:19.394Z,26.82
2023-05-20T13:56:47.453Z,26.95
2023-05-20T13:59:15.584Z,25.06
2023-05-20T14:01:45.757Z,24.69
2023-05-20T14:04:15.413Z,25.51
2023-05-20T14:06:43.457Z,25.71
2023-05-20T14:09:11.950Z,26.25
2023-05-20T14:11:40.554Z,25.35
2023-05-20T14:14:08.614Z,26.26
2023-05-20T14:16:37.395Z,26.83
2023-05-20T14:19:06.388Z,25.45
2023-05-20T14:21:37.925Z,24.90
2023-05-20T14:24:06.368Z,25.04
2023-05-20T14:26:34.679Z,26.24
2023-05-20T14:29:03.109Z,24.52
2023-05-20T14:31:31.190Z,25.04
2023-05-20T14:33:59.410Z,26.58
2023-05-20T14:36:27.457Z,25.47
2023-05-20T14:38:56.879Z,25.81
2023-05-20T14:41:25.039Z,24.96
2023-05-20T14:43:53.013Z,24.31
2023-05-20T14:46:21.725Z,25.08
2023-05-20T14:48:49.686Z,24.05
2023-05-20T14:51:17.922Z,24.40
2023-05-20T14:53:47.222Z,24.54
2023-05-20T14:56:17.110Z,25.77
2023-05-20T14:58:47.965Z,25.08
2023-05-20T15:01:16.336Z,24.29
2023-05-20T15:03:44.403Z,23.82
2023-05-20T15:06:13.784Z,24.37
2023-05-20T15:08:42.332Z,24.57
2023-05-20T15:11:10.364Z,24.20
2023-05-20T15:13:40.611Z,24.13
2023-05-20T15:16:09.012Z,23.85
2023-05-20T15:18:37.085Z,24.24
2023-05-20T15:21:08.309Z,24.40
2023-05-20T15:23:36.465Z,24.34
2023-05-20T15:26:05.289Z,23.89
2023-05-20T15:28:34.026Z,24.66
2023-05-20T15:31:04.017Z,25.23
2023-05-20T15:33:32.913Z,25.41
2023-05-20T15:36:01.166Z,24.42
2023-05-20T15:38:29.457Z,24.88
2023-05-20T15:40:57.446Z,25.35
2023-05-20T15:43:25.797Z,24.95
2023-05-20T15:45:54.285Z,24.31
2023-05-20T15:48:23.846Z,23.57
2023-05-20T15:50:51.940Z,24.45
2023-05-20T15:53:20.158Z,24.37
2023-05-20T15:55:48.481Z,24.18
2023-05-20T15:58:16.568Z,25.13
2023-05-20T16:00:45.392Z,24.91
2023-05-20T16:03:13.585Z,25.03
2023-05-20T16:05:43.396Z,24.72
2023-05-20T16:08:11.744Z,24.46
2023-05-20T16:10:40.032Z,24.54
2023-05-20T16:13:08.260Z,24.34
2023-05-20T16:15:38.418Z,24.45
2023-05-20T16:18:09.516Z,24.86
2023-05-20T16:20:37.832Z,24.83
2023-05-20T16:23:08.752Z,25.05
2023-05-20T16:25:36.905Z,25.41
2023-05-20T16:28:05.009Z,25.33
2023-05-20T16:30:33.389Z,25.36
2023-05-20T16:33:01.620Z,25.98
2023-05-20T16:35:29.849Z,25.98
2023-05-20T16:37:59.059Z,25.31
2023-05-20T16:40:29.168Z,25.21
2023-05-20T16:42:57.400Z,24.83
2023-05-20T16:45:25.582Z,25.39
2023-05-20T16:47:54.237Z,25.25
2023-05-20T16:50:22.407Z,25.30
2023-05-20T16:52:50.512Z,24.84
2023-05-20T16:55:18.623Z,25.05
2023-05-20T16:57:48.944Z,25.29
2023-05-20T17:00:17.172Z,24.73
2023-05-20T17:02:46.735Z,24.21
2023-05-20T17:05:16.781Z,24.61
2023-05-20T17:07:46.966Z,24.75
2023-05-20T17:10:15.332Z,25.00
2023-05-20T17:12:43.613Z,25.21
2023-05-20T17:15:13.251Z,24.30
2023-05-20T17:17:41.653Z,24.96
2023-05-20T17:20:11.084Z,25.11
2023-05-20T17:22:39.669Z,25.01
2023-05-20T17:25:08.369Z,25.06
2023-05-20T17:27:36.604Z,24.80
2023-05-20T17:30:05.464Z,24.71
2023-05-20T17:32:35.640Z,25.05
2023-05-20T17:35:03.997Z,25.86
2023-05-20T17:37:32.213Z,24.58
2023-05-20T17:40:00.629Z,24.15
2023-05-20T17:42:28.964Z,24.17
2023-05-20T17:44:57.773Z,24.12
2023-05-20T17:47:26.104Z,23.38
2023-05-20T17:49:55.749Z,24.28
2023-05-20T17:52:24.477Z,24.54
2023-05-20T17:54:52.608Z,24.23
2023-05-20T17:57:21.176Z,24.10
2023-05-20T17:59:50.799Z,24.85
2023-05-20T18:02:19.949Z,24.32
2023-05-20T18:04:48.448Z,24.44
2023-05-20T18:07:18.510Z,24.83
2023-05-20T18:09:46.883Z,25.10
2023-05-20T18:12:15.234Z,24.92
2023-05-20T18:14:43.559Z,24.92
2023-05-20T18:17:12.558Z,25.15
2023-05-20T18:19:41.374Z,25.06
2023-05-20T18:22:09.522Z,24.57
2023-05-20T18:24:39.212Z,25.18
2023-05-20T18:27:07.398Z,24.29
2023-05-20T18:29:35.664Z,24.03
2023-05-20T18:32:03.931Z,24.40
2023-05-20T18:34:33.403Z,24.35
2023-05-20T18:37:01.844Z,24.36
2023-05-20T18:39:29.834Z,24.00
2023-05-20T18:41:59.728Z,23.95
2023-05-20T18:44:28.027Z,24.18
2023-05-20T18:46:57.074Z,24.64
2023-05-20T18:49:25.161Z,24.74
2023-05-20T18:51:53.618Z,24.43
2023-05-20T18:54:21.599Z,24.70
2023-05-20T18:56:49.855Z,23.97
2023-05-20T18:59:19.300Z,24.23
2023-05-20T19:01:47.594Z,24.24
2023-05-20T19:04:15.849Z,23.78
2023-05-20T19:06:43.844Z,24.03
2023-05-20T19:09:11.961Z,23.45
2023-05-20T19:11:40.000Z,23.70
2023-05-20T19:14:08.031Z,23.50
2023-05-20T19:16:37.605Z,23.78
2023-05-20T19:19:05.884Z,23.77
2023-05-20T19:21:34.167Z,23.64
2023-05-20T19:24:02.311Z,23.88
2023-05-20T19:26:30.546Z,23.52
2023-05-20T19:28:58.588Z,23.46
2023-05-20T19:31:26.942Z,23.99
2023-05-20T19:33:56.673Z,23.76
2023-05-20T19:36:24.749Z,23.69
2023-05-20T19:38:52.719Z,23.99
2023-05-20T19:41:21.207Z,24.01
2023-05-20T19:43:49.170Z,23.98
2023-05-20T19:46:17.323Z,24.06
2023-05-20T19:48:45.365Z,23.68
2023-05-20T19:51:14.765Z,23.36
2023-05-20T19:53:42.687Z,23.89
2023-05-20T19:56:10.882Z,23.89
2023-05-20T19:58:39.041Z,23.41
2023-05-20T20:01:07.114Z,23.40
2023-05-20T20:03:35.058Z,23.64
2023-05-20T20:06:04.001Z,23.63
2023-05-20T20:08:33.448Z,23.30
2023-05-20T20:11:01.329Z,22.82
2023-05-20T20:13:30.537Z,23.18
2023-05-20T20:15:58.984Z,23.33
2023-05-20T20:18:27.250Z,23.20
2023-05-20T20:20:55.751Z,23.13
2023-05-20T20:23:23.801Z,23.07
2023-05-20T20:25:53.949Z,22.77
2023-05-20T20:28:23.153Z,22.92
2023-05-20T20:30:52.060Z,22.74
2023-05-20T20:33:23.549Z,23.20
2023-05-20T20:35:54.529Z,23.14
2023-05-20T20:38:23.227Z,23.26
2023-05-20T20:40:54.088Z,22.83
2023-05-20T20:43:24.379Z,22.47
2023-05-20T20:45:53.323Z,22.39
2023-05-20T20:48:27.149Z,22.33
2023-05-20T20:50:57.442Z,22.50
2023-05-20T20:53:25.868Z,22.81
2023-05-20T20:55:53.900Z,22.54
2023-05-20T20:58:23.332Z,22.67
2023-05-20T21:00:53.096Z,22.38
2023-05-20T21:03:24.241Z,22.56
2023-05-20T21:05:53.676Z,22.53
2023-05-20T21:08:27.669Z,22.19
2023-05-20T21:10:59.462Z,21.68
2023-05-20T21:13:29.191Z,22.13
2023-05-20T21:15:58.180Z,22.20
2023-05-20T21:18:26.808Z,22.27
2023-05-20T21:21:00.808Z,22.18
2023-05-20T21:23:29.153Z,21.79
2023-05-20T21:25:57.181Z,22.10
2023-05-20T21:28:25.032Z,22.11
2023-05-20T21:30:54.633Z,21.61
2023-05-20T21:33:23.105Z,21.62
2023-05-20T21:35:51.163Z,21.63
2023-05-20T21:38:19.411Z,21.64
2023-05-20T21:40:47.698Z,21.51
2023-05-20T21:43:16.095Z,20.97
2023-05-20T21:45:45.565Z,20.75
2023-05-20T21:48:17.515Z,20.59
2023-05-20T21:50:46.047Z,20.67
2023-05-20T21:53:18.602Z,21.07
2023-05-20T21:55:48.547Z,20.71
2023-05-20T21:58:17.703Z,20.81
2023-05-20T22:00:46.693Z,20.93
2023-05-20T22:03:17.908Z,20.65
2023-05-20T22:05:50.148Z,20.71
2023-05-20T22:08:19.565Z,20.61
2023-05-20T22:10:50.711Z,21.02
2023-05-20T22:13:20.765Z,20.53
2023-05-20T22:15:48.840Z,21.29
2023-05-20T22:18:18.385Z,20.66
2023-05-20T22:20:48.852Z,20.51
2023-05-20T22:23:16.987Z,20.33
2023-05-20T22:25:44.933Z,20.56
2023-05-20T22:28:12.821Z,20.27
2023-05-20T22:30:40.891Z,20.46
2023-05-20T22:33:09.110Z,20.20
2023-05-20T22:35:38.984Z,20.44
2023-05-20T22:38:07.031Z,20.35
2023-05-20T22:40:35.470Z,20.24
2023-05-20T22:43:03.620Z,20.27
2023-05-20T22:45:31.749Z,20.02
2023-05-20T22:48:00.445Z,20.49
2023-05-20T22:50:30.501Z,20.43
2023-05-20T22:53:00.131Z,20.20
2023-05-20T22:55:28.168Z,20.56
2023-05-20T22:57:56.250Z,19.87
2023-05-20T23:00:24.826Z,20.18
2023-05-20T23:02:53.011Z,20.68
2023-05-20T23:05:21.694Z,20.43
2023-05-20T23:07:52.559Z,20.36
2023-05-20T23:10:22.289Z,20.44
2023-05-20T23:12:50.325Z,20.38
2023-05-20T23:15:18.456Z,19.99
2023-05-20T23:17:46.638Z,20.52
2023-05-20T23:20:19.063Z,19.96
2023-05-20T23:22:47.443Z,20.34
2023-05-20T23:25:15.581Z,20.14
2023-05-20T23:27:45.321Z,20.84
2023-05-20T23:30:13.878Z,20.77
2023-05-20T23:32:42.600Z,20.75
2023-05-20T23:35:12.061Z,20.16
2023-05-20T23:37:41.060Z,19.91
2023-05-20T23:40:10.264Z,20.16
2023-05-20T23:42:38.221Z,20.95
2023-05-20T23:45:08.360Z,20.68
2023-05-20T23:47:36.510Z,20.70
2023-05-20T23:50:05.197Z,20.78
2023-05-20T23:52:33.339Z,20.74
2023-05-20T23:55:01.388Z,20.83
2023-05-20T23:57:29.375Z,21.08
2023-05-20T23:59:57.424Z,21.35
